createdAt,value
2023-03-31T00:00:13.343Z,59.84
2023-03-31T00:01:13.325Z,60.03
2023-03-31T00:02:13.380Z,59.94
2023-03-31T00:03:13.366Z,60.03
2023-03-31T00:04:13.766Z,60.41
2023-03-31T00:05:13.220Z,59.94
2023-03-31T00:06:13.172Z,59.94
2023-03-31T00:07:13.145Z,60.13
2023-03-31T00:08:13.123Z,60.41
2023-03-31T00:09:13.089Z,60.22
2023-03-31T00:10:18.423Z,60.13
2023-03-31T00:11:13.047Z,60.41
2023-03-31T00:12:13.009Z,60.41
2023-03-31T00:13:12.977Z,60.50
2023-03-31T00:14:12.965Z,60.70
2023-03-31T00:15:12.910Z,60.60
2023-03-31T00:16:12.907Z,60.41
2023-03-31T00:17:12.880Z,60.41
2023-03-31T00:18:12.821Z,60.60
2023-03-31T00:19:12.803Z,60.50
2023-03-31T00:20:12.903Z,60.60
2023-03-31T00:21:12.735Z,60.89
2023-03-31T00:22:12.725Z,60.50
2023-03-31T00:23:12.694Z,60.50
2023-03-31T00:24:12.660Z,60.41
2023-03-31T00:25:12.692Z,60.22
2023-03-31T00:26:12.617Z,60.31
2023-03-31T00:27:12.565Z,60.31
2023-03-31T00:28:12.548Z,60.22
2023-03-31T00:29:12.506Z,60.03
2023-03-31T00:30:12.489Z,60.22
2023-03-31T00:31:12.461Z,60.41
2023-03-31T00:32:12.564Z,60.22
2023-03-31T00:33:12.393Z,60.03
2023-03-31T00:34:12.390Z,60.03
2023-03-31T00:35:12.344Z,59.94
2023-03-31T00:36:12.342Z,59.84
2023-03-31T00:37:12.327Z,59.84
2023-03-31T00:38:12.251Z,59.84
2023-03-31T00:39:12.227Z,59.84
2023-03-31T00:40:12.217Z,59.84
2023-03-31T00:41:12.159Z,59.66
2023-03-31T00:42:12.137Z,59.66
2023-03-31T00:43:12.097Z,59.75
2023-03-31T00:44:12.077Z,59.66
2023-03-31T00:45:12.050Z,59.75
2023-03-31T00:46:12.084Z,59.56
2023-03-31T00:47:11.981Z,59.75
2023-03-31T00:48:12.063Z,59.94
2023-03-31T00:49:11.923Z,59.75
2023-03-31T00:50:11.902Z,59.63
2023-03-31T00:51:11.876Z,59.81
2023-03-31T00:52:11.845Z,59.53
2023-03-31T00:53:11.806Z,59.91
2023-03-31T00:54:29.112Z,59.91
2023-03-31T00:56:15.045Z,60.19
2023-03-31T00:57:14.975Z,60.47
2023-03-31T00:59:15.349Z,60.38
2023-03-31T01:00:14.931Z,60.67
2023-03-31T01:02:18.749Z,60.47
2023-03-31T01:03:17.740Z,60.95
2023-03-31T01:05:18.138Z,60.95
2023-03-31T01:06:18.338Z,61.33
2023-03-31T01:08:36.784Z,61.71
2023-03-31T01:09:35.292Z,60.95
2023-03-31T01:10:35.715Z,61.52
2023-03-31T01:11:35.871Z,61.61
2023-03-31T01:12:35.774Z,61.52
2023-03-31T01:13:35.715Z,61.80
2023-03-31T01:14:34.691Z,61.68
2023-03-31T01:15:34.692Z,62.34
2023-03-31T01:16:34.670Z,62.15
2023-03-31T01:17:34.807Z,61.96
2023-03-31T01:18:34.681Z,61.87
2023-03-31T01:19:34.556Z,62.43
2023-03-31T01:20:34.524Z,62.47
2023-03-31T01:21:34.528Z,61.96
2023-03-31T01:22:34.467Z,62.43
2023-03-31T01:23:34.433Z,62.18
2023-03-31T01:24:34.422Z,62.28
2023-03-31T01:25:34.424Z,62.18
2023-03-31T01:26:34.377Z,62.18
2023-03-31T01:27:34.511Z,62.18
2023-03-31T01:28:34.617Z,62.18
2023-03-31T01:29:34.714Z,62.28
2023-03-31T01:30:34.836Z,61.90
2023-03-31T01:31:35.001Z,62.37
2023-03-31T01:32:35.132Z,62.47
2023-03-31T01:33:34.137Z,62.47
2023-03-31T01:34:34.102Z,62.34
2023-03-31T01:35:34.128Z,62.28
2023-03-31T01:36:34.052Z,62.28
2023-03-31T01:37:34.019Z,62.28
2023-03-31T01:38:34.021Z,62.28
2023-03-31T01:39:33.966Z,62.37
2023-03-31T01:40:33.927Z,62.18
2023-03-31T01:41:33.913Z,62.18
2023-03-31T01:42:33.919Z,62.08
2023-03-31T01:43:33.848Z,62.28
2023-03-31T01:44:33.837Z,62.28
2023-03-31T01:45:33.796Z,61.99
2023-03-31T01:46:33.930Z,62.28
2023-03-31T01:47:33.928Z,62.37
2023-03-31T01:48:34.114Z,62.56
2023-03-31T01:49:34.190Z,62.37
2023-03-31T01:50:34.303Z,62.82
2023-03-31T01:51:34.413Z,62.75
2023-03-31T01:52:34.546Z,62.53
2023-03-31T01:53:33.548Z,62.62
2023-03-31T01:54:33.515Z,62.82
2023-03-31T01:55:33.502Z,62.72
2023-03-31T01:56:33.515Z,62.72
2023-03-31T01:57:33.435Z,62.72
2023-03-31T01:58:33.431Z,62.53
2023-03-31T01:59:33.383Z,63.48
2023-03-31T02:00:33.412Z,62.91
2023-03-31T02:01:34.438Z,62.72
2023-03-31T02:02:33.367Z,62.82
2023-03-31T02:03:33.450Z,62.62
2023-03-31T02:04:33.262Z,63.32
2023-03-31T02:05:33.272Z,62.75
2023-03-31T02:06:33.327Z,62.85
2023-03-31T02:07:33.484Z,63.04
2023-03-31T02:08:33.602Z,62.75
2023-03-31T02:09:33.715Z,62.47
2023-03-31T02:10:33.847Z,62.66
2023-03-31T02:11:33.976Z,63.13
2023-03-31T02:12:33.004Z,62.66
2023-03-31T02:13:32.967Z,62.85
2023-03-31T02:14:32.931Z,62.94
2023-03-31T02:15:32.912Z,63.42
2023-03-31T02:16:32.942Z,62.94
2023-03-31T02:17:33.012Z,62.85
2023-03-31T02:18:32.838Z,62.85
2023-03-31T02:19:32.770Z,62.85
2023-03-31T02:20:32.757Z,63.04
2023-03-31T02:21:32.717Z,63.04
2023-03-31T02:22:32.701Z,63.13
2023-03-31T02:23:32.676Z,63.04
2023-03-31T02:24:32.665Z,63.04
2023-03-31T02:25:32.666Z,63.13
2023-03-31T02:26:32.795Z,63.13
2023-03-31T02:27:32.922Z,62.94
2023-03-31T02:28:33.073Z,63.42
2023-03-31T02:29:33.213Z,63.13
2023-03-31T02:30:33.332Z,63.04
2023-03-31T02:31:32.452Z,63.32
2023-03-31T02:32:32.504Z,63.32
2023-03-31T02:33:32.376Z,63.32
2023-03-31T02:34:32.344Z,63.13
2023-03-31T02:35:32.385Z,63.32
2023-03-31T02:36:32.318Z,63.32
2023-03-31T02:37:32.264Z,63.13
2023-03-31T02:38:32.242Z,63.23
2023-03-31T02:39:32.187Z,63.32
2023-03-31T02:40:32.179Z,63.32
2023-03-31T02:41:32.142Z,63.32
2023-03-31T02:42:32.109Z,63.13
2023-03-31T02:43:32.092Z,63.23
2023-03-31T02:44:32.131Z,63.13
2023-03-31T02:45:32.279Z,63.04
2023-03-31T02:46:32.484Z,62.94
2023-03-31T02:47:32.540Z,62.94
2023-03-31T02:48:32.614Z,63.13
2023-03-31T02:49:32.693Z,63.32
2023-03-31T02:50:34.394Z,63.42
2023-03-31T02:51:31.839Z,63.70
2023-03-31T02:52:31.825Z,63.60
2023-03-31T02:53:31.796Z,63.79
2023-03-31T02:54:31.758Z,63.60
2023-03-31T02:55:31.775Z,63.70
2023-03-31T02:56:31.702Z,63.60
2023-03-31T02:57:31.672Z,63.60
2023-03-31T02:58:31.646Z,63.70
2023-03-31T02:59:31.603Z,63.60
2023-03-31T03:00:31.598Z,63.60
2023-03-31T03:01:31.707Z,63.70
2023-03-31T03:02:31.628Z,63.60
2023-03-31T03:03:31.564Z,63.42
2023-03-31T03:04:31.540Z,63.60
2023-03-31T03:05:31.712Z,63.60
2023-03-31T03:06:31.818Z,63.60
2023-03-31T03:07:31.955Z,63.32
2023-03-31T03:08:32.065Z,63.42
2023-03-31T03:09:32.200Z,63.42
2023-03-31T03:10:31.341Z,63.70
2023-03-31T03:11:31.260Z,63.60
2023-03-31T03:12:31.248Z,63.42
2023-03-31T03:13:31.187Z,63.42
2023-03-31T03:14:31.178Z,63.70
2023-03-31T03:15:31.173Z,63.60
2023-03-31T03:16:31.144Z,63.70
2023-03-31T03:17:31.149Z,63.42
2023-03-31T03:18:31.075Z,63.51
2023-03-31T03:19:31.017Z,63.51
2023-03-31T03:20:31.000Z,64.27
2023-03-31T03:21:30.966Z,64.17
2023-03-31T03:22:30.937Z,64.08
2023-03-31T03:23:30.936Z,63.98
2023-03-31T03:24:31.062Z,63.98
2023-03-31T03:25:31.184Z,64.08
2023-03-31T03:26:31.308Z,64.17
2023-03-31T03:27:31.486Z,64.08
2023-03-31T03:28:31.575Z,64.08
2023-03-31T03:29:31.674Z,64.36
2023-03-31T03:30:30.743Z,63.98
2023-03-31T03:31:30.675Z,64.17
2023-03-31T03:32:30.693Z,64.55
2023-03-31T03:33:30.627Z,64.27
2023-03-31T03:34:30.592Z,64.27
2023-03-31T03:35:30.549Z,64.27
2023-03-31T03:36:30.547Z,63.98
2023-03-31T03:37:30.507Z,63.98
2023-03-31T03:38:30.499Z,64.46
2023-03-31T03:39:30.427Z,64.36
2023-03-31T03:40:30.432Z,64.55
2023-03-31T03:41:30.370Z,64.36
2023-03-31T03:42:30.348Z,64.27
2023-03-31T03:43:30.461Z,64.36
2023-03-31T03:44:30.558Z,64.36
2023-03-31T03:45:30.658Z,64.36
2023-03-31T03:46:30.846Z,64.36
2023-03-31T03:47:30.929Z,64.46
2023-03-31T03:48:31.016Z,64.36
2023-03-31T03:49:31.142Z,64.36
2023-03-31T03:50:30.119Z,64.36
2023-03-31T03:51:30.094Z,64.36
2023-03-31T03:52:30.071Z,64.27
2023-03-31T03:53:30.021Z,64.46
2023-03-31T03:54:30.019Z,64.65
2023-03-31T03:55:29.958Z,64.36
2023-03-31T03:56:29.937Z,64.46
2023-03-31T03:57:30.022Z,64.46
2023-03-31T03:58:29.873Z,64.36
2023-03-31T03:59:29.845Z,64.36
2023-03-31T04:00:29.832Z,64.27
2023-03-31T04:01:29.782Z,64.36
2023-03-31T04:02:29.892Z,64.36
2023-03-31T04:03:29.929Z,64.36
2023-03-31T04:04:30.007Z,64.36
2023-03-31T04:05:30.214Z,64.27
2023-03-31T04:06:30.282Z,64.36
2023-03-31T04:07:30.402Z,64.36
2023-03-31T04:08:30.539Z,64.36
2023-03-31T04:09:30.562Z,64.36
2023-03-31T04:10:29.569Z,64.55
2023-03-31T04:11:29.494Z,64.46
2023-03-31T04:12:29.510Z,64.27
2023-03-31T04:13:29.436Z,64.55
2023-03-31T04:14:29.472Z,64.55
2023-03-31T04:15:29.467Z,64.46
2023-03-31T04:16:29.483Z,64.46
2023-03-31T04:17:29.434Z,64.46
2023-03-31T04:18:46.894Z,64.55
2023-03-31T04:20:51.186Z,64.46
2023-03-31T04:21:33.691Z,64.55
2023-03-31T04:23:38.374Z,64.84
2023-03-31T04:24:37.515Z,64.84
2023-03-31T04:26:41.148Z,64.74
2023-03-31T04:27:41.217Z,64.65
2023-03-31T04:29:44.328Z,64.46
2023-03-31T04:30:44.997Z,64.46
2023-03-31T04:32:49.298Z,64.46
2023-03-31T04:33:49.567Z,64.65
2023-03-31T04:35:54.900Z,64.55
2023-03-31T04:36:53.836Z,64.65
2023-03-31T04:38:58.297Z,64.84
2023-03-31T04:39:57.731Z,64.65
2023-03-31T04:42:00.571Z,64.93
2023-03-31T04:43:01.145Z,65.03
2023-03-31T04:44:55.247Z,64.74
2023-03-31T04:45:55.489Z,64.46
2023-03-31T04:46:56.080Z,64.55
2023-03-31T04:49:31.278Z,64.65
2023-03-31T04:50:31.691Z,64.84
2023-03-31T04:52:28.509Z,64.74
2023-03-31T04:53:27.334Z,64.74
2023-03-31T04:55:25.884Z,65.03
2023-03-31T04:56:25.885Z,64.93
2023-03-31T04:58:28.104Z,64.93
2023-03-31T04:59:29.244Z,64.93
2023-03-31T05:01:31.246Z,64.84
2023-03-31T05:02:31.136Z,64.84
2023-03-31T05:04:32.369Z,64.59
2023-03-31T05:05:32.900Z,64.97
2023-03-31T05:07:34.002Z,64.87
2023-03-31T05:08:34.683Z,64.49
2023-03-31T05:10:39.871Z,64.49
2023-03-31T05:11:40.476Z,64.20
2023-03-31T05:13:43.439Z,64.40
2023-03-31T05:14:42.856Z,64.59
2023-03-31T05:16:46.940Z,64.30
2023-03-31T05:17:46.620Z,64.40
2023-03-31T05:19:50.006Z,64.40
2023-03-31T05:20:49.965Z,64.49
2023-03-31T05:23:19.152Z,64.40
2023-03-31T05:23:57.460Z,64.59
2023-03-31T05:26:01.272Z,64.49
2023-03-31T05:27:01.363Z,64.40
2023-03-31T05:29:00.506Z,64.30
2023-03-31T05:30:01.076Z,64.49
2023-03-31T05:32:03.900Z,63.82
2023-03-31T05:33:04.505Z,64.11
2023-03-31T05:35:34.093Z,64.20
2023-03-31T05:36:34.620Z,64.01
2023-03-31T05:37:34.678Z,63.92
2023-03-31T05:38:35.226Z,64.11
2023-03-31T05:39:34.479Z,63.73
2023-03-31T05:40:33.536Z,63.64
2023-03-31T05:41:33.493Z,63.82
2023-03-31T05:42:33.454Z,63.64
2023-03-31T05:43:33.036Z,63.73
2023-03-31T05:44:33.020Z,63.54
2023-03-31T05:45:32.980Z,63.64
2023-03-31T05:46:32.952Z,63.64
2023-03-31T05:47:32.944Z,63.73
2023-03-31T05:48:32.895Z,63.82
2023-03-31T05:49:32.927Z,63.64
2023-03-31T05:50:32.822Z,63.73
2023-03-31T05:51:32.822Z,63.45
2023-03-31T05:52:32.778Z,63.26
2023-03-31T05:53:32.929Z,63.20
2023-03-31T05:54:33.072Z,63.17
2023-03-31T05:55:33.750Z,63.29
2023-03-31T05:56:33.365Z,63.20
2023-03-31T05:57:33.528Z,63.20
2023-03-31T05:58:32.593Z,63.20
2023-03-31T05:59:32.575Z,63.39
2023-03-31T06:00:32.531Z,63.39
2023-03-31T06:01:32.566Z,63.20
2023-03-31T06:02:32.539Z,63.29
2023-03-31T06:03:32.543Z,63.29
2023-03-31T06:04:32.454Z,63.20
2023-03-31T06:05:32.433Z,63.10
2023-03-31T06:06:32.357Z,63.29
2023-03-31T06:07:32.334Z,63.01
2023-03-31T06:08:32.314Z,63.10
2023-03-31T06:09:32.281Z,63.20
2023-03-31T06:10:32.250Z,63.20
2023-03-31T06:11:32.283Z,63.20
2023-03-31T06:12:32.444Z,63.39
2023-03-31T06:13:32.547Z,63.57
2023-03-31T06:14:32.664Z,63.39
2023-03-31T06:15:32.793Z,63.10
2023-03-31T06:16:33.008Z,62.91
2023-03-31T06:17:33.083Z,63.10
2023-03-31T06:18:32.025Z,62.91
2023-03-31T06:19:32.001Z,63.10
2023-03-31T06:20:31.984Z,62.91
2023-03-31T06:21:31.946Z,63.10
2023-03-31T06:22:31.906Z,63.57
2023-03-31T06:23:31.896Z,62.82
2023-03-31T06:24:31.854Z,63.01
2023-03-31T06:25:43.871Z,62.72
2023-03-31T06:26:31.815Z,62.72
2023-03-31T06:27:31.784Z,63.10
2023-03-31T06:28:31.737Z,63.42
2023-03-31T06:29:31.784Z,63.42
2023-03-31T06:30:31.737Z,62.94
2023-03-31T06:31:31.950Z,63.13
2023-03-31T06:32:32.012Z,62.85
2023-03-31T06:33:32.137Z,62.66
2023-03-31T06:34:32.283Z,62.94
2023-03-31T06:35:32.462Z,63.13
2023-03-31T06:36:32.514Z,63.23
2023-03-31T06:37:31.492Z,62.66
2023-03-31T06:38:31.543Z,62.56
2023-03-31T06:39:31.454Z,62.27
2023-03-31T06:40:31.405Z,62.27
2023-03-31T06:41:31.399Z,62.37
2023-03-31T06:42:31.340Z,62.37
2023-03-31T06:43:31.327Z,62.18
2023-03-31T06:44:31.343Z,62.27
2023-03-31T06:45:31.274Z,62.27
2023-03-31T06:46:31.311Z,62.46
2023-03-31T06:47:31.276Z,62.27
2023-03-31T06:48:31.198Z,62.46
2023-03-31T06:49:31.170Z,62.56
2023-03-31T06:50:31.296Z,61.99
2023-03-31T06:51:32.793Z,62.18
2023-03-31T06:52:31.578Z,62.56
2023-03-31T06:53:32.076Z,61.90
2023-03-31T06:54:31.837Z,62.08
2023-03-31T06:55:31.994Z,62.08
2023-03-31T06:56:30.979Z,61.99
2023-03-31T06:57:30.967Z,61.99
2023-03-31T06:58:31.815Z,61.42
2023-03-31T06:59:30.905Z,61.61
2023-03-31T07:00:30.843Z,61.80
2023-03-31T07:01:30.933Z,61.61
2023-03-31T07:02:30.942Z,61.42
2023-03-31T07:03:30.881Z,61.52
2023-03-31T07:04:30.745Z,61.71
2023-03-31T07:05:30.733Z,61.74
2023-03-31T07:06:30.669Z,61.65
2023-03-31T07:07:30.664Z,61.65
2023-03-31T07:08:30.649Z,61.74
2023-03-31T07:09:30.790Z,61.55
2023-03-31T07:10:30.873Z,61.65
2023-03-31T07:11:30.986Z,61.55
2023-03-31T07:12:31.088Z,61.17
2023-03-31T07:13:31.232Z,61.26
2023-03-31T07:14:31.310Z,61.45
2023-03-31T07:15:30.431Z,61.55
2023-03-31T07:16:30.418Z,61.45
2023-03-31T07:17:30.426Z,60.88
2023-03-31T07:18:31.529Z,61.17
2023-03-31T07:19:30.337Z,61.07
2023-03-31T07:20:30.293Z,61.07
2023-03-31T07:21:30.269Z,60.98
2023-03-31T07:22:30.244Z,61.01
2023-03-31T07:23:30.244Z,61.07
2023-03-31T07:24:30.193Z,61.26
2023-03-31T07:25:30.164Z,61.20
2023-03-31T07:26:30.137Z,61.29
2023-03-31T07:27:30.099Z,60.63
2023-03-31T07:28:30.154Z,60.53
2023-03-31T07:29:30.301Z,60.16
2023-03-31T07:30:30.406Z,60.25
2023-03-31T07:31:30.562Z,60.16
2023-03-31T07:32:30.657Z,60.25
2023-03-31T07:33:30.791Z,60.44
2023-03-31T07:34:30.921Z,60.25
2023-03-31T07:35:31.433Z,60.63
2023-03-31T07:36:29.957Z,60.44
2023-03-31T07:37:29.843Z,60.66
2023-03-31T07:38:29.829Z,60.47
2023-03-31T07:39:29.808Z,60.38
2023-03-31T07:40:29.754Z,60.57
2023-03-31T07:41:29.749Z,60.57
2023-03-31T07:42:29.766Z,60.66
2023-03-31T07:43:29.676Z,60.38
2023-03-31T07:44:29.684Z,59.90
2023-03-31T07:45:29.634Z,59.83
2023-03-31T07:46:29.669Z,59.90
2023-03-31T07:47:29.621Z,60.02
2023-03-31T07:48:29.706Z,59.71
2023-03-31T07:49:29.816Z,60.02
2023-03-31T07:50:29.945Z,59.83
2023-03-31T07:51:30.044Z,59.64
2023-03-31T07:52:30.177Z,59.45
2023-03-31T07:53:30.329Z,59.36
2023-03-31T07:54:29.384Z,59.17
2023-03-31T07:55:29.364Z,59.17
2023-03-31T07:56:29.346Z,59.07
2023-03-31T07:57:29.366Z,59.36
2023-03-31T07:58:29.275Z,58.98
2023-03-31T07:59:29.278Z,59.17
2023-03-31T08:00:29.235Z,59.27
2023-03-31T08:01:29.267Z,59.17
2023-03-31T08:02:29.351Z,59.07
2023-03-31T08:03:29.171Z,59.07
2023-03-31T08:04:29.227Z,58.98
2023-03-31T08:05:29.109Z,58.50
2023-03-31T08:06:29.185Z,58.98
2023-03-31T08:07:29.152Z,58.88
2023-03-31T08:08:29.324Z,58.59
2023-03-31T08:09:29.421Z,58.88
2023-03-31T08:10:29.560Z,58.88
2023-03-31T08:11:29.677Z,58.98
2023-03-31T08:12:29.838Z,58.88
2023-03-31T08:13:28.888Z,58.69
2023-03-31T08:14:38.285Z,58.69
2023-03-31T08:15:28.860Z,58.50
2023-03-31T08:16:28.856Z,58.69
2023-03-31T08:17:28.822Z,58.69
2023-03-31T08:18:28.811Z,58.79
2023-03-31T08:19:28.757Z,58.88
2023-03-31T08:20:28.705Z,58.03
2023-03-31T08:21:28.708Z,58.12
2023-03-31T08:22:28.643Z,58.31
2023-03-31T08:23:28.626Z,58.79
2023-03-31T08:24:28.608Z,58.50
2023-03-31T08:25:28.606Z,58.69
2023-03-31T08:26:28.548Z,58.88
2023-03-31T08:27:28.638Z,58.81
2023-03-31T08:28:28.728Z,58.72
2023-03-31T08:29:28.865Z,58.62
2023-03-31T08:30:28.984Z,58.44
2023-03-31T08:31:29.206Z,58.53
2023-03-31T08:32:29.284Z,58.53
2023-03-31T08:33:29.375Z,58.34
2023-03-31T08:34:28.356Z,57.96
2023-03-31T08:35:28.311Z,57.96
2023-03-31T08:36:28.365Z,57.96
2023-03-31T08:37:28.304Z,57.58
2023-03-31T08:38:28.233Z,57.58
2023-03-31T08:39:28.223Z,57.39
2023-03-31T08:40:28.212Z,57.51
2023-03-31T08:41:28.190Z,57.51
2023-03-31T08:42:28.134Z,57.32
2023-03-31T08:43:28.122Z,57.32
2023-03-31T08:44:28.101Z,57.32
2023-03-31T08:45:28.159Z,56.85
2023-03-31T08:46:28.078Z,56.85
2023-03-31T08:47:28.203Z,56.68
2023-03-31T08:48:28.245Z,56.78
2023-03-31T08:49:28.380Z,57.16
2023-03-31T08:50:28.571Z,56.78
2023-03-31T08:51:28.623Z,55.92
2023-03-31T08:52:28.734Z,56.11
2023-03-31T08:53:28.852Z,56.30
2023-03-31T08:54:27.829Z,55.92
2023-03-31T08:55:27.815Z,55.83
2023-03-31T08:56:27.796Z,55.92
2023-03-31T08:57:27.830Z,55.63
2023-03-31T08:58:27.738Z,55.35
2023-03-31T08:59:27.725Z,54.88
2023-03-31T09:00:27.716Z,54.49
2023-03-31T09:01:27.700Z,54.68
2023-03-31T09:02:27.913Z,54.59
2023-03-31T09:03:27.756Z,54.39
2023-03-31T09:04:27.598Z,54.78
2023-03-31T09:05:27.568Z,54.21
2023-03-31T09:06:27.656Z,54.02
2023-03-31T09:07:27.540Z,53.92
2023-03-31T09:08:27.612Z,53.92
2023-03-31T09:09:27.748Z,54.21
2023-03-31T09:10:27.801Z,54.11
2023-03-31T09:11:27.912Z,53.92
2023-03-31T09:12:28.094Z,53.92
2023-03-31T09:13:28.153Z,53.64
2023-03-31T09:14:28.364Z,53.25
2023-03-31T09:15:27.315Z,53.73
2023-03-31T09:16:27.326Z,53.64
2023-03-31T09:17:27.309Z,53.64
2023-03-31T09:18:27.298Z,53.54
2023-03-31T09:19:27.238Z,53.54
2023-03-31T09:20:27.193Z,53.73
2023-03-31T09:21:27.182Z,53.64
2023-03-31T09:22:27.163Z,53.73
2023-03-31T09:23:27.172Z,53.83
2023-03-31T09:24:27.147Z,53.44
2023-03-31T09:25:27.084Z,52.97
2023-03-31T09:26:27.065Z,52.87
2023-03-31T09:27:27.066Z,52.68
2023-03-31T09:28:27.080Z,52.68
2023-03-31T09:29:27.235Z,52.97
2023-03-31T09:30:27.309Z,52.97
2023-03-31T09:31:27.450Z,52.97
2023-03-31T09:32:27.564Z,53.28
2023-03-31T09:33:27.656Z,53.09
2023-03-31T09:34:27.782Z,53.28
2023-03-31T09:35:26.952Z,52.71
2023-03-31T09:36:26.837Z,51.88
2023-03-31T09:37:26.779Z,51.76
2023-03-31T09:38:26.745Z,51.31
2023-03-31T09:39:26.745Z,51.21
2023-03-31T09:40:26.725Z,51.02
2023-03-31T09:41:26.700Z,51.02
2023-03-31T09:42:26.656Z,50.73
2023-03-31T09:43:26.673Z,50.45
2023-03-31T09:44:26.604Z,50.45
2023-03-31T09:45:26.611Z,50.35
2023-03-31T09:46:26.624Z,50.45
2023-03-31T09:47:26.558Z,50.35
2023-03-31T09:48:26.511Z,50.54
2023-03-31T09:49:26.642Z,50.09
2023-03-31T09:50:26.754Z,50.28
2023-03-31T09:51:26.925Z,50.28
2023-03-31T09:52:27.035Z,49.90
2023-03-31T09:53:27.160Z,49.62
2023-03-31T09:54:27.355Z,49.52
2023-03-31T09:55:39.191Z,49.52
2023-03-31T09:56:26.345Z,49.73
2023-03-31T09:57:26.521Z,49.44
2023-03-31T09:58:26.294Z,49.73
2023-03-31T09:59:26.268Z,49.54
2023-03-31T10:00:26.227Z,49.44
2023-03-31T10:01:26.282Z,50.12
2023-03-31T10:02:26.229Z,49.07
2023-03-31T10:03:26.191Z,48.33
2023-03-31T10:04:26.172Z,47.85
2023-03-31T10:05:26.114Z,47.56
2023-03-31T10:06:26.108Z,47.66
2023-03-31T10:07:26.061Z,47.85
2023-03-31T10:08:26.047Z,47.37
2023-03-31T10:09:26.163Z,47.18
2023-03-31T10:10:26.348Z,47.27
2023-03-31T10:11:26.456Z,47.66
2023-03-31T10:12:26.582Z,47.47
2023-03-31T10:13:26.754Z,47.85
2023-03-31T10:14:26.891Z,47.27
2023-03-31T10:15:25.894Z,47.56
2023-03-31T10:16:26.038Z,47.56
2023-03-31T10:17:25.866Z,47.37
2023-03-31T10:18:25.908Z,47.68
2023-03-31T10:19:25.793Z,47.47
2023-03-31T10:20:25.792Z,47.08
2023-03-31T10:21:25.758Z,47.08
2023-03-31T10:22:25.745Z,47.18
2023-03-31T10:23:25.717Z,47.37
2023-03-31T10:24:25.719Z,47.18
2023-03-31T10:25:25.662Z,46.61
2023-03-31T10:26:25.640Z,46.61
2023-03-31T10:27:25.637Z,46.22
2023-03-31T10:28:25.719Z,46.13
2023-03-31T10:29:25.855Z,46.32
2023-03-31T10:30:25.971Z,46.22
2023-03-31T10:31:26.154Z,46.03
2023-03-31T10:32:26.272Z,46.42
2023-03-31T10:33:26.411Z,46.22
2023-03-31T10:34:25.469Z,46.13
2023-03-31T10:35:25.427Z,46.42
2023-03-31T10:36:25.406Z,46.32
2023-03-31T10:37:25.408Z,46.32
2023-03-31T10:38:25.385Z,46.13
2023-03-31T10:39:25.330Z,46.58
2023-03-31T10:40:25.318Z,46.30
2023-03-31T10:41:25.365Z,46.68
2023-03-31T10:42:25.279Z,46.58
2023-03-31T10:43:25.262Z,46.48
2023-03-31T10:44:25.240Z,46.58
2023-03-31T10:45:36.389Z,47.34
2023-03-31T10:46:25.279Z,47.63
2023-03-31T10:47:25.203Z,47.63
2023-03-31T10:48:25.264Z,47.73
2023-03-31T10:49:25.383Z,47.06
2023-03-31T10:50:25.498Z,46.68
2023-03-31T10:51:25.657Z,46.97
2023-03-31T10:52:25.795Z,46.87
2023-03-31T10:53:25.936Z,46.68
2023-03-31T10:54:25.016Z,46.58
2023-03-31T10:55:24.986Z,47.06
2023-03-31T10:56:24.995Z,46.77
2023-03-31T10:57:24.977Z,46.68
2023-03-31T10:58:24.933Z,46.39
2023-03-31T10:59:24.935Z,46.39
2023-03-31T11:00:24.862Z,46.20
2023-03-31T11:01:24.870Z,46.11
2023-03-31T11:02:24.837Z,46.20
2023-03-31T11:03:24.918Z,46.20
2023-03-31T11:04:24.767Z,46.11
2023-03-31T11:05:24.792Z,46.18
2023-03-31T11:06:24.762Z,46.20
2023-03-31T11:07:24.729Z,46.30
2023-03-31T11:08:24.856Z,46.68
2023-03-31T11:09:24.980Z,46.27
2023-03-31T11:10:26.074Z,46.58
2023-03-31T11:11:25.245Z,47.06
2023-03-31T11:12:25.334Z,46.68
2023-03-31T11:13:28.593Z,46.48
2023-03-31T11:14:25.562Z,45.61
2023-03-31T11:15:32.796Z,45.43
2023-03-31T11:16:24.691Z,45.53
2023-03-31T11:17:24.674Z,45.03
2023-03-31T11:18:24.445Z,45.51
2023-03-31T11:19:24.424Z,45.51
2023-03-31T11:20:24.389Z,45.42
2023-03-31T11:21:24.362Z,45.42
2023-03-31T11:22:24.347Z,45.32
2023-03-31T11:23:24.325Z,45.42
2023-03-31T11:24:24.323Z,45.70
2023-03-31T11:25:24.277Z,45.13
2023-03-31T11:26:24.294Z,45.51
2023-03-31T11:27:24.262Z,45.89
2023-03-31T11:28:24.385Z,45.61
2023-03-31T11:29:35.443Z,45.79
2023-03-31T11:31:23.974Z,45.29
2023-03-31T11:32:24.938Z,45.58
2023-03-31T11:34:26.668Z,45.68
2023-03-31T11:35:28.385Z,45.58
2023-03-31T11:36:25.359Z,45.49
2023-03-31T11:37:26.342Z,45.68
2023-03-31T11:38:37.463Z,45.68
2023-03-31T11:39:24.692Z,45.68
2023-03-31T11:40:25.547Z,45.68
2023-03-31T11:41:25.517Z,45.49
2023-03-31T11:42:26.205Z,45.68
2023-03-31T11:43:26.268Z,45.68
2023-03-31T11:44:25.108Z,45.68
2023-03-31T11:45:24.633Z,45.49
2023-03-31T11:46:24.596Z,45.39
2023-03-31T11:47:24.619Z,45.68
2023-03-31T11:48:24.513Z,45.68
2023-03-31T11:49:24.579Z,45.68
2023-03-31T11:50:24.638Z,45.89
2023-03-31T11:51:24.472Z,45.51
2023-03-31T11:52:24.488Z,45.22
2023-03-31T11:53:24.361Z,45.51
2023-03-31T11:54:24.645Z,45.49
2023-03-31T11:55:24.410Z,45.20
2023-03-31T11:56:24.285Z,45.01
2023-03-31T11:57:24.347Z,45.20
2023-03-31T11:58:24.273Z,45.49
2023-03-31T11:59:24.218Z,45.49
2023-03-31T12:00:24.219Z,45.20
2023-03-31T12:01:24.196Z,45.51
2023-03-31T12:02:24.147Z,45.49
2023-03-31T12:03:24.277Z,45.29
2023-03-31T12:04:24.134Z,45.01
2023-03-31T12:05:24.213Z,44.92
2023-03-31T12:06:24.071Z,44.53
2023-03-31T12:07:24.060Z,43.77
2023-03-31T12:08:24.024Z,44.06
2023-03-31T12:09:24.005Z,44.06
2023-03-31T12:10:23.979Z,44.63
2023-03-31T12:11:23.947Z,44.53
2023-03-31T12:12:23.905Z,45.29
2023-03-31T12:13:23.876Z,44.73
2023-03-31T12:14:23.916Z,44.82
2023-03-31T12:15:23.891Z,44.53
2023-03-31T12:16:23.821Z,44.15
2023-03-31T12:17:23.880Z,44.53
2023-03-31T12:18:23.795Z,43.87
2023-03-31T12:19:23.751Z,43.58
2023-03-31T12:20:23.722Z,43.39
2023-03-31T12:21:23.720Z,43.39
2023-03-31T12:22:23.674Z,43.29
2023-03-31T12:23:23.644Z,43.68
2023-03-31T12:24:23.621Z,43.87
2023-03-31T12:25:23.692Z,43.96
2023-03-31T12:26:23.578Z,44.63
2023-03-31T12:27:23.552Z,44.53
2023-03-31T12:28:23.551Z,44.44
2023-03-31T12:29:23.536Z,44.53
2023-03-31T12:30:23.483Z,44.34
2023-03-31T12:31:23.553Z,44.34
2023-03-31T12:32:23.486Z,44.73
2023-03-31T12:33:23.406Z,44.53
2023-03-31T12:34:23.383Z,44.44
2023-03-31T12:35:23.425Z,44.53
2023-03-31T12:36:23.374Z,44.15
2023-03-31T12:37:23.325Z,44.63
2023-03-31T12:38:23.364Z,44.06
2023-03-31T12:39:23.285Z,43.96
2023-03-31T12:40:23.243Z,43.58
2023-03-31T12:41:23.274Z,43.96
2023-03-31T12:42:25.062Z,43.77
2023-03-31T12:43:23.170Z,43.96
2023-03-31T12:44:23.170Z,44.06
2023-03-31T12:45:23.153Z,44.53
2023-03-31T12:46:23.241Z,44.44
2023-03-31T12:47:23.077Z,44.34
2023-03-31T12:48:23.077Z,44.25
2023-03-31T12:49:23.024Z,44.34
2023-03-31T12:50:23.005Z,44.44
2023-03-31T12:51:23.029Z,44.82
2023-03-31T12:52:23.020Z,44.25
2023-03-31T12:53:22.938Z,44.44
2023-03-31T12:54:22.936Z,43.96
2023-03-31T12:55:22.910Z,43.96
2023-03-31T12:56:22.930Z,43.87
2023-03-31T12:57:22.927Z,43.87
2023-03-31T12:58:22.853Z,43.77
2023-03-31T12:59:22.786Z,43.58
2023-03-31T13:00:22.792Z,43.68
2023-03-31T13:01:22.928Z,43.96
2023-03-31T13:02:22.885Z,44.15
2023-03-31T13:03:22.722Z,44.53
2023-03-31T13:04:22.694Z,44.53
2023-03-31T13:05:22.655Z,44.44
2023-03-31T13:06:22.691Z,43.87
2023-03-31T13:07:28.123Z,43.77
2023-03-31T13:08:22.608Z,43.58
2023-03-31T13:09:22.549Z,44.04
2023-03-31T13:10:22.571Z,43.65
2023-03-31T13:11:22.519Z,43.65
2023-03-31T13:12:22.524Z,44.42
2023-03-31T13:13:22.466Z,44.53
2023-03-31T13:14:22.447Z,44.23
2023-03-31T13:15:22.412Z,44.53
2023-03-31T13:16:22.405Z,44.53
2023-03-31T13:17:22.359Z,44.73
2023-03-31T13:18:22.367Z,44.82
2023-03-31T13:19:22.299Z,44.25
2023-03-31T13:20:22.282Z,44.60
2023-03-31T13:21:22.263Z,44.13
2023-03-31T13:22:22.291Z,44.53
2023-03-31T13:23:22.231Z,44.44
2023-03-31T13:24:22.212Z,44.15
2023-03-31T13:25:22.228Z,44.15
2023-03-31T13:26:22.146Z,43.68